Time;durP1;ratioP1;P1;durP2;ratioP2;P2;SDS_P1;SDS_P2;PMS_P1;PMS_P2;Temp;Humidity;BMP_temperature;BMP_pressure;BME280_temperature;BME280_humidity;BME280_pressure;Samples;Min_cycle;Max_cycle;Signal;HPM_P1;HPM_P2
2023/02/14 00:01:51;;;;;;;23.00;12.60;;;;;;;3.05;59.89;102360.05;107544;1258;112126;-61
2023/02/14 00:04:20;;;;;;;22.00;13.40;;;;;;;3.06;59.41;102355.06;107608;1254;110271;-62
2023/02/14 00:06:48;;;;;;;25.10;13.10;;;;;;;3.09;59.55;102348.07;107532;1254;108895;-61
2023/02/14 00:09:18;;;;;;;22.20;12.50;;;;;;;3.10;59.54;102341.09;107622;1254;97867;-62
2023/02/14 00:11:46;;;;;;;24.90;13.00;;;;;;;3.14;59.26;102344.35;107570;1254;97831;-62
2023/02/14 00:17:03;;;;;;;27.70;12.10;;;;;;;3.20;59.13;102343.82;107627;1256;109451;-61
2023/02/14 00:19:33;;;;;;;18.30;10.50;;;;;;;3.22;59.02;102330.64;107582;1256;108462;-61
2023/02/14 00:22:03;;;;;;;21.60;11.80;;;;;;;3.24;58.88;102320.45;107576;1254;97847;-62
2023/02/14 00:24:31;;;;;;;22.10;12.00;;;;;;;3.27;58.84;102317.70;107600;1255;97748;-61
2023/02/14 00:27:00;;;;;;;21.00;11.50;;;;;;;3.28;58.70;102314.30;107629;1254;112338;-61
2023/02/14 00:29:31;;;;;;;27.10;12.00;;;;;;;3.29;58.52;102319.04;107618;1256;110892;-60
2023/02/14 00:32:02;;;;;;;24.50;12.20;;;;;;;3.28;58.49;102307.36;107559;1257;109395;-62
2023/02/14 00:34:32;;;;;;;23.00;11.80;;;;;;;3.28;58.29;102308.06;107586;1254;97826;-61
2023/02/14 00:37:00;;;;;;;25.60;11.50;;;;;;;3.28;58.14;102309.33;107611;1254;97707;-60
2023/02/14 00:39:28;;;;;;;28.80;11.80;;;;;;;3.28;58.28;102304.17;107600;1254;111624;-62
2023/02/14 00:41:58;;;;;;;25.20;11.30;;;;;;;3.26;58.25;102305.30;107646;1255;109260;-61
2023/02/14 00:44:26;;;;;;;25.80;12.00;;;;;;;3.26;58.16;102306.02;107643;1254;107780;-62
2023/02/14 00:46:55;;;;;;;23.20;12.30;;;;;;;3.26;58.14;102310.97;107540;1254;97866;-62
2023/02/14 00:49:24;;;;;;;23.70;11.40;;;;;;;3.28;58.19;102312.33;107690;1254;98356;-62
2023/02/14 00:51:52;;;;;;;19.40;11.20;;;;;;;3.29;57.93;102309.11;107649;1255;110294;-60
2023/02/14 00:54:21;;;;;;;19.40;10.60;;;;;;;3.30;57.96;102308.02;107582;1254;109709;-61
2023/02/14 00:56:49;;;;;;;21.90;11.90;;;;;;;3.29;57.80;102302.35;107546;1254;108167;-62
2023/02/14 00:59:17;;;;;;;19.10;11.10;;;;;;;3.31;57.70;102300.55;107605;1253;97824;-61
2023/02/14 01:01:46;;;;;;;18.50;11.30;;;;;;;3.32;57.66;102296.45;107542;1257;98608;-61
2023/02/14 01:04:14;;;;;;;24.50;11.80;;;;;;;3.33;57.49;102288.59;107543;1254;112099;-62
2023/02/14 01:06:43;;;;;;;21.40;11.30;;;;;;;3.34;57.55;102276.86;107583;1254;110036;-62
2023/02/14 01:09:13;;;;;;;19.40;11.40;;;;;;;3.34;57.58;102272.23;107603;1254;106633;-61
2023/02/14 01:11:42;;;;;;;23.00;12.60;;;;;;;3.33;57.45;102275.11;107654;1251;97828;-61
2023/02/14 01:14:10;;;;;;;19.40;11.40;;;;;;;3.32;57.89;102273.73;107661;1254;98360;-62
2023/02/14 01:16:39;;;;;;;21.40;11.20;;;;;;;3.32;57.94;102279.05;107597;1254;111409;-61
2023/02/14 01:19:08;;;;;;;20.90;11.90;;;;;;;3.31;57.88;102273.61;107553;1254;110034;-62
2023/02/14 01:21:36;;;;;;;18.60;11.00;;;;;;;3.31;58.30;102272.54;107559;1254;107270;-60
2023/02/14 01:24:06;;;;;;;19.70;10.90;;;;;;;3.31;58.39;102271.84;107623;1254;97825;-60
2023/02/14 01:26:35;;;;;;;21.90;11.30;;;;;;;3.32;58.72;102269.69;107586;1254;97826;-63
2023/02/14 01:29:04;;;;;;;21.00;11.30;;;;;;;3.32;59.16;102262.38;107672;1254;112215;-62
2023/02/14 01:31:34;;;;;;;20.10;10.50;;;;;;;3.34;59.42;102263.02;107634;1253;108125;-63
2023/02/14 01:34:03;;;;;;;20.20;10.80;;;;;;;3.36;59.67;102270.56;107647;1255;108869;-62
2023/02/14 01:36:38;;;;;;;22.70;11.30;;;;;;;3.38;59.82;102272.98;107714;1251;97825;-63
2023/02/14 01:39:11;;;;;;;20.20;11.20;;;;;;;3.41;59.98;102281.41;107666;1253;97735;-62
2023/02/14 01:41:42;;;;;;;17.20;10.00;;;;;;;3.42;60.24;102283.66;107661;1254;110722;-62
2023/02/14 01:44:13;;;;;;;17.00;9.30;;;;;;;3.44;60.31;102272.41;107652;1254;110039;-62
2023/02/14 01:46:44;;;;;;;14.20;9.20;;;;;;;3.47;60.29;102272.16;107638;1254;108178;-60
2023/02/14 01:49:20;;;;;;;17.50;9.40;;;;;;;3.52;60.40;102267.58;107542;1254;97972;-62
2023/02/14 01:51:58;;;;;;;16.80;9.40;;;;;;;3.55;60.32;102274.02;107632;1254;97740;-61
2023/02/14 01:54:32;;;;;;;15.60;9.70;;;;;;;3.58;59.85;102267.52;107575;1253;111413;-62
2023/02/14 01:57:06;;;;;;;19.80;10.70;;;;;;;3.59;59.25;102274.77;107578;1253;109057;-62
2023/02/14 01:59:42;;;;;;;18.10;10.20;;;;;;;3.59;59.11;102274.74;107674;1254;108598;-62
2023/02/14 02:02:10;;;;;;;19.30;11.00;;;;;;;3.58;58.62;102279.21;107668;1254;97900;-61
2023/02/14 02:04:43;;;;;;;20.50;10.70;;;;;;;3.56;58.70;102276.44;107680;1251;97739;-61
2023/02/14 02:07:22;;;;;;;19.00;11.10;;;;;;;3.54;59.16;102270.51;107663;1251;111768;-61
2023/02/14 02:09:59;;;;;;;18.70;10.30;;;;;;;3.52;59.28;102260.46;107617;1254;109474;-61
2023/02/14 02:12:28;;;;;;;18.50;9.90;;;;;;;3.51;59.42;102259.79;107597;1251;107281;-60
2023/02/14 02:14:59;;;;;;;16.70;9.30;;;;;;;3.51;59.66;102255.54;107674;1254;97925;-60
2023/02/14 02:17:43;;;;;;;19.70;10.00;;;;;;;3.51;59.66;102257.12;107675;1254;98378;-61
2023/02/14 02:20:14;;;;;;;15.60;8.80;;;;;;;3.52;60.02;102257.27;107619;1251;110841;-62
2023/02/14 02:23:05;;;;;;;16.00;9.70;;;;;;;3.52;59.93;102248.93;107552;1254;108216;-60
2023/02/14 02:25:55;;;;;;;19.00;10.50;;;;;;;3.53;60.05;102248.52;107585;1254;108398;-61
2023/02/14 02:28:33;;;;;;;15.80;9.30;;;;;;;3.54;59.93;102250.27;107509;1251;97844;-62
2023/02/14 02:31:28;;;;;;;16.10;8.00;;;;;;;3.53;60.10;102254.73;107545;1253;97703;-62
2023/02/14 02:34:12;;;;;;;19.50;9.50;;;;;;;3.53;60.29;102243.05;107643;1251;111248;-63
2023/02/14 02:36:47;;;;;;;15.40;8.90;;;;;;;3.53;60.34;102244.45;107599;1253;108688;-61
2023/02/14 02:39:15;;;;;;;13.60;8.60;;;;;;;3.54;60.45;102247.80;107640;1256;108691;-61
2023/02/14 02:42:10;;;;;;;13.80;8.10;;;;;;;3.55;60.54;102249.16;107621;1254;97851;-61
2023/02/14 02:44:41;;;;;;;13.90;8.70;;;;;;;3.55;60.53;102250.41;107444;1251;97825;-63
2023/02/14 02:47:41;;;;;;;14.20;8.70;;;;;;;3.54;60.82;102246.91;107655;1254;112702;-62
2023/02/14 02:53:12;;;;;;;16.00;8.50;;;;;;;3.53;61.57;102246.95;107611;1254;108057;-61
2023/02/14 02:58:49;;;;;;;12.80;6.50;;;;;;;3.58;62.81;102233.11;107646;1254;97941;-62
2023/02/14 03:01:21;;;;;;;9.80;6.50;;;;;;;3.61;63.04;102230.14;107582;1254;111215;-62
2023/02/14 03:06:46;;;;;;;9.50;5.30;;;;;;;3.69;63.36;102226.49;107530;1254;109392;-60
2023/02/14 03:09:26;;;;;;;8.70;5.10;;;;;;;3.73;63.63;102227.95;107652;1256;97707;-60
2023/02/14 03:12:34;;;;;;;7.40;4.70;;;;;;;3.77;63.74;102227.65;107672;1253;97825;-61
2023/02/14 03:15:28;;;;;;;7.80;4.50;;;;;;;3.81;63.97;102220.39;107640;1251;111293;-62
2023/02/14 03:21:27;;;;;;;5.60;4.10;;;;;;;3.90;64.09;102222.70;107599;1254;108916;-62
2023/02/14 03:24:07;;;;;;;6.30;3.80;;;;;;;3.94;64.19;102214.94;107710;1253;97823;-62
2023/02/14 03:26:48;;;;;;;5.20;3.80;;;;;;;3.97;64.01;102207.36;107672;1254;98376;-64
2023/02/14 03:29:33;;;;;;;7.10;3.70;;;;;;;3.99;64.14;102205.36;107657;1254;111273;-62
2023/02/14 03:32:20;;;;;;;;;;;;;;;4.00;63.89;102206.00;107614;1253;109903;-61
2023/02/14 03:34:59;;;;;;;5.70;3.80;;;;;;;4.02;63.92;102204.89;107634;1254;108427;-62
2023/02/14 03:37:50;;;;;;;5.70;3.50;;;;;;;4.03;63.90;102209.09;107595;1254;97830;-62
2023/02/14 03:40:30;;;;;;;5.50;3.50;;;;;;;4.04;64.01;102210.31;107679;1254;98351;-61
2023/02/14 03:43:06;;;;;;;7.00;3.90;;;;;;;4.04;63.74;102209.77;107639;1254;110884;-61
2023/02/14 03:45:41;;;;;;;5.60;4.00;;;;;;;4.03;63.80;102205.34;107582;1254;109695;-62
2023/02/14 03:48:13;;;;;;;5.30;3.60;;;;;;;4.02;63.88;102199.73;107613;1254;107769;-61
2023/02/14 03:50:45;;;;;;;7.50;3.90;;;;;;;4.00;63.94;102197.13;107615;1252;97817;-62
2023/02/14 03:53:21;;;;;;;5.10;3.30;;;;;;;3.98;64.17;102196.34;107656;1254;97847;-61
2023/02/14 03:55:59;;;;;;;28.80;13.40;;;;;;;3.97;64.22;102197.26;107604;1256;111758;-64
2023/02/14 03:58:33;;;;;;;7.70;4.80;;;;;;;3.96;64.04;102195.88;107658;1255;109174;-61
2023/02/14 04:01:12;;;;;;;4.70;3.20;;;;;;;3.94;64.14;102190.13;107641;1256;109379;-62
2023/02/14 04:03:42;;;;;;;6.30;3.70;;;;;;;3.92;64.16;102189.63;107654;1254;97817;-61
2023/02/14 04:06:11;;;;;;;6.10;3.60;;;;;;;3.91;64.38;102189.30;107706;1254;97710;-61
2023/02/14 04:08:39;;;;;;;4.90;3.50;;;;;;;3.92;64.29;102186.98;107651;1254;111949;-61
2023/02/14 04:11:07;;;;;;;5.10;3.70;;;;;;;3.90;64.56;102184.90;107584;1253;109215;-62
2023/02/14 04:13:37;;;;;;;4.60;3.40;;;;;;;3.89;64.39;102187.26;107628;1254;107736;-62
2023/02/14 04:16:06;;;;;;;6.60;3.50;;;;;;;3.89;64.40;102180.35;107624;1254;97937;-62
2023/02/14 04:21:21;;;;;;;9.30;3.70;;;;;;;3.90;64.28;102183.13;107598;1254;112548;-63
2023/02/14 04:23:49;;;;;;;4.70;3.10;;;;;;;3.90;64.40;102181.71;107678;1253;109959;-61
2023/02/14 04:26:18;;;;;;;5.40;3.30;;;;;;;3.90;64.25;102195.73;107604;1256;108271;-63
2023/02/14 04:28:46;;;;;;;6.50;3.40;;;;;;;3.89;64.21;102194.15;107603;1254;97835;-60
2023/02/14 04:31:14;;;;;;;4.60;3.30;;;;;;;3.88;64.55;102189.95;107584;1254;97826;-60
2023/02/14 04:33:44;;;;;;;6.50;3.30;;;;;;;3.86;64.44;102197.66;107595;1254;111478;-60
2023/02/14 04:36:13;;;;;;;8.40;3.10;;;;;;;3.83;64.42;102195.65;107609;1251;109031;-61
2023/02/14 04:38:41;;;;;;;3.70;2.70;;;;;;;3.81;64.59;102196.80;107575;1254;108757;-61
2023/02/14 04:41:10;;;;;;;4.80;3.10;;;;;;;3.77;64.25;102185.92;107487;1254;97887;-61
2023/02/14 04:43:39;;;;;;;39.20;18.90;;;;;;;3.79;64.42;102185.71;107555;1253;99240;-61
2023/02/14 04:46:07;;;;;;;5.40;3.50;;;;;;;3.81;64.35;102182.98;107650;1251;111724;-62
2023/02/14 04:48:35;;;;;;;4.80;3.10;;;;;;;3.82;63.58;102184.70;107588;1254;110045;-61
2023/02/14 04:51:04;;;;;;;4.30;2.40;;;;;;;3.85;63.48;102184.40;107639;1256;108209;-61
2023/02/14 04:53:38;;;;;;;6.60;3.40;;;;;;;3.88;63.11;102184.28;107546;1254;97816;-61
2023/02/14 04:56:07;;;;;;;6.50;3.60;;;;;;;3.91;62.92;102188.25;107596;1256;98386;-61
2023/02/14 04:58:36;;;;;;;4.50;3.10;;;;;;;3.93;62.77;102189.26;107676;1251;112405;-61
2023/02/14 05:01:04;;;;;;;3.80;2.90;;;;;;;3.94;62.66;102191.14;107631;1254;110397;-61
2023/02/14 05:03:33;;;;;;;6.20;3.10;;;;;;;3.94;62.32;102184.56;107573;1251;108175;-60
2023/02/14 05:06:01;;;;;;;5.50;3.00;;;;;;;3.95;62.43;102185.45;107679;1254;97829;-60
2023/02/14 05:08:30;;;;;;;13.60;6.60;;;;;;;3.94;62.04;102190.42;107660;1253;98439;-61
2023/02/14 05:10:58;;;;;;;7.70;3.60;;;;;;;3.94;62.25;102197.55;107682;1256;110775;-62
2023/02/14 05:13:27;;;;;;;12.20;7.20;;;;;;;3.93;62.09;102194.91;107570;1253;109885;-59
2023/02/14 05:15:56;;;;;;;5.80;3.20;;;;;;;3.91;62.35;102196.02;107632;1254;108502;-59
2023/02/14 05:18:24;;;;;;;5.60;3.30;;;;;;;3.90;62.17;102193.61;107566;1251;97853;-62
2023/02/14 05:20:54;;;;;;;4.10;2.80;;;;;;;3.90;62.48;102194.30;107598;1254;97703;-60
2023/02/14 05:23:22;;;;;;;2.60;2.30;;;;;;;3.91;62.32;102198.18;107659;1253;110295;-61
2023/02/14 05:25:51;;;;;;;7.00;3.60;;;;;;;3.92;62.55;102203.30;107623;1256;110872;-59
2023/02/14 05:28:19;;;;;;;2.90;2.40;;;;;;;3.90;62.53;102203.02;107637;1255;108514;-60
2023/02/14 05:30:50;;;;;;;6.10;3.70;;;;;;;3.86;62.57;102198.02;107647;1254;97966;-61
2023/02/14 05:33:19;;;;;;;13.10;3.70;;;;;;;3.86;62.78;102200.14;107625;1253;97813;-61
2023/02/14 05:35:47;;;;;;;5.60;3.20;;;;;;;3.89;62.76;102197.36;107647;1254;112721;-61
2023/02/14 05:38:16;;;;;;;5.40;2.80;;;;;;;3.91;62.89;102194.28;107712;1254;109665;-61
2023/02/14 05:40:45;;;;;;;5.70;3.60;;;;;;;3.94;62.74;102194.19;107637;1254;108539;-61
2023/02/14 05:43:13;;;;;;;6.30;3.00;;;;;;;3.96;62.79;102202.09;107674;1254;97730;-63
2023/02/14 05:45:41;;;;;;;7.70;2.90;;;;;;;3.96;62.65;102201.02;107723;1253;97810;-59
2023/02/14 05:48:10;;;;;;;5.60;2.90;;;;;;;3.97;62.94;102208.44;107643;1252;111815;-62
2023/02/14 05:50:38;;;;;;;4.10;3.10;;;;;;;3.97;62.94;102205.59;107623;1251;110151;-59
2023/02/14 05:53:08;;;;;;;9.60;3.00;;;;;;;3.98;63.06;102204.33;107650;1254;108898;-61
2023/02/14 05:55:36;;;;;;;6.40;3.30;;;;;;;3.97;63.35;102201.33;107699;1253;97883;-61
2023/02/14 05:58:05;;;;;;;7.30;3.60;;;;;;;3.96;63.39;102203.32;107643;1253;97881;-62
2023/02/14 06:00:34;;;;;;;6.40;4.00;;;;;;;3.95;63.64;102201.57;107623;1254;110284;-60
2023/02/14 06:03:02;;;;;;;6.30;3.60;;;;;;;3.96;63.58;102204.59;107597;1254;109366;-60
2023/02/14 06:05:31;;;;;;;7.90;4.00;;;;;;;3.95;63.92;102202.11;107602;1252;107883;-60
2023/02/14 06:08:00;;;;;;;6.00;4.00;;;;;;;3.94;63.93;102198.60;107558;1252;98325;-60
2023/02/14 06:10:29;;;;;;;12.10;3.90;;;;;;;3.96;64.09;102202.81;107680;1251;98354;-61
2023/02/14 06:12:58;;;;;;;11.80;4.70;;;;;;;3.96;64.20;102198.37;107654;1253;112092;-60
2023/02/14 06:15:26;;;;;;;9.30;4.10;;;;;;;3.97;64.33;102196.73;107613;1254;109320;-60
2023/02/14 06:17:56;;;;;;;6.70;4.20;;;;;;;3.98;64.44;102196.86;107585;1254;108812;-60
2023/02/14 06:20:24;;;;;;;7.30;4.40;;;;;;;3.99;64.44;102196.80;107587;1253;97828;-60
2023/02/14 06:22:53;;;;;;;5.10;3.80;;;;;;;4.01;64.48;102191.40;107623;1251;97906;-60
2023/02/14 06:25:23;;;;;;;8.90;5.10;;;;;;;4.02;64.39;102192.11;107640;1252;111265;-59
2023/02/14 06:27:55;;;;;;;8.80;4.70;;;;;;;4.03;64.42;102190.98;107616;1251;110171;-59
2023/02/14 06:30:24;;;;;;;8.80;4.70;;;;;;;4.03;64.43;102189.21;107682;1252;108688;-60
2023/02/14 06:32:53;;;;;;;9.30;4.50;;;;;;;4.04;64.35;102187.92;107624;1251;97818;-60
2023/02/14 06:35:22;;;;;;;8.60;4.60;;;;;;;4.06;64.19;102188.38;107670;1251;98395;-59
2023/02/14 06:37:50;;;;;;;9.50;4.80;;;;;;;4.10;64.39;102185.23;107606;1254;112095;-60
2023/02/14 06:40:19;;;;;;;15.90;4.90;;;;;;;4.14;64.17;102177.80;107591;1253;109850;-61
2023/02/14 06:42:48;;;;;;;6.80;4.20;;;;;;;4.16;64.10;102180.73;107608;1254;108343;-61
2023/02/14 06:45:16;;;;;;;14.10;4.70;;;;;;;4.20;64.02;102179.14;107617;1251;97841;-59
2023/02/14 06:47:45;;;;;;;8.40;5.00;;;;;;;4.26;63.87;102180.52;107624;1251;98463;-61
2023/02/14 06:50:13;;;;;;;9.70;5.20;;;;;;;4.30;64.07;102182.48;107649;1253;111474;-60
2023/02/14 06:52:43;;;;;;;9.40;4.30;;;;;;;4.32;63.63;102182.04;107645;1251;110480;-59
2023/02/14 06:55:12;;;;;;;9.60;5.40;;;;;;;4.37;63.79;102179.36;107641;1254;108875;-60
2023/02/14 06:57:40;;;;;;;8.90;4.80;;;;;;;4.43;63.63;102183.05;107578;1251;97819;-60
2023/02/14 07:00:10;;;;;;;9.90;5.30;;;;;;;4.47;63.45;102182.01;107705;1253;97705;-59
2023/02/14 07:02:38;;;;;;;11.20;6.20;;;;;;;4.49;63.43;102171.61;107557;1253;111363;-60
2023/02/14 07:05:08;;;;;;;12.90;6.40;;;;;;;4.51;63.64;102170.66;107615;1254;110192;-61
2023/02/14 07:07:37;;;;;;;10.40;6.00;;;;;;;4.55;63.46;102172.95;107625;1254;107034;-59
2023/02/14 07:10:06;;;;;;;10.70;6.00;;;;;;;4.59;63.34;102168.55;107652;1255;97835;-60
2023/02/14 07:12:34;;;;;;;9.30;5.00;;;;;;;4.62;63.26;102171.61;107617;1253;98357;-60
2023/02/14 07:15:02;;;;;;;9.80;6.20;;;;;;;4.63;63.52;102166.97;107579;1254;112255;-59
2023/02/14 07:17:31;;;;;;;11.80;6.20;;;;;;;4.66;63.33;102159.93;107627;1254;109534;-60
2023/02/14 07:19:59;;;;;;;16.60;6.90;;;;;;;4.69;63.34;102157.98;107621;1252;107856;-58
2023/02/14 07:22:28;;;;;;;13.20;6.10;;;;;;;4.76;63.46;102166.27;107620;1254;97844;-61
2023/02/14 07:24:57;;;;;;;10.90;6.30;;;;;;;4.79;63.28;102167.71;107645;1253;98450;-60
2023/02/14 07:27:26;;;;;;;10.00;5.60;;;;;;;4.86;63.32;102165.11;107629;1254;111735;-59
2023/02/14 07:29:55;;;;;;;9.50;6.10;;;;;;;4.90;63.12;102176.70;107595;1254;110004;-60
2023/02/14 07:32:23;;;;;;;12.90;6.40;;;;;;;4.94;63.08;102169.41;107565;1253;108612;-61
2023/02/14 07:34:51;;;;;;;10.80;7.00;;;;;;;4.98;63.13;102167.46;107601;1252;97839;-61
2023/02/14 07:37:20;;;;;;;11.30;6.80;;;;;;;5.02;62.99;102165.89;107601;1253;98424;-62
2023/02/14 07:39:49;;;;;;;13.70;7.20;;;;;;;5.05;63.24;102168.05;107646;1253;111707;-60
2023/02/14 07:42:17;;;;;;;11.20;6.80;;;;;;;5.10;63.00;102170.85;107571;1255;109846;-60
2023/02/14 07:44:45;;;;;;;11.40;7.30;;;;;;;5.16;63.10;102167.05;107564;1254;107306;-63
2023/02/14 07:47:13;;;;;;;14.10;6.90;;;;;;;5.14;62.84;102177.25;107547;1254;97815;-60
2023/02/14 07:49:41;;;;;;;17.30;8.10;;;;;;;5.15;62.79;102171.20;107652;1254;98391;-60
2023/02/14 07:52:10;;;;;;;14.20;7.30;;;;;;;5.14;63.04;102173.00;107670;1253;109990;-60
2023/02/14 07:54:38;;;;;;;17.30;7.10;;;;;;;5.11;63.03;102166.57;107656;1253;110098;-61
2023/02/14 07:57:07;;;;;;;14.60;8.20;;;;;;;5.09;62.94;102160.08;107613;1253;108071;-61
2023/02/14 07:59:35;;;;;;;11.80;6.80;;;;;;;5.11;63.06;102163.02;107626;1253;97822;-59
2023/02/14 08:02:03;;;;;;;16.30;7.80;;;;;;;5.08;63.02;102168.11;107632;1254;97941;-60
2023/02/14 08:04:32;;;;;;;14.40;7.10;;;;;;;5.05;63.02;102163.44;107561;1253;110676;-59
2023/02/14 08:07:00;;;;;;;14.60;7.60;;;;;;;5.08;63.19;102159.06;107603;1254;110100;-60
2023/02/14 08:09:29;;;;;;;21.80;7.60;;;;;;;5.10;63.14;102160.52;107584;1254;108291;-61
2023/02/14 08:14:45;;;;;;;12.70;6.90;;;;;;;5.16;63.18;102167.05;107617;1253;97771;-60
2023/02/14 08:17:13;;;;;;;17.20;8.20;;;;;;;5.15;63.06;102168.87;107598;1256;111144;-61
2023/02/14 08:19:41;;;;;;;10.70;6.20;;;;;;;5.13;63.07;102166.84;107595;1253;109684;-60
2023/02/14 08:22:10;;;;;;;15.30;8.10;;;;;;;5.12;63.13;102172.22;107597;1256;108985;-59
2023/02/14 08:24:38;;;;;;;15.50;7.60;;;;;;;5.09;63.11;102167.54;107634;1254;97922;-61
2023/02/14 08:27:06;;;;;;;12.10;7.00;;;;;;;5.07;63.22;102163.17;107629;1254;98363;-61
2023/02/14 08:29:36;;;;;;;14.70;8.50;;;;;;;5.05;63.40;102157.75;107643;1254;111841;-61
2023/02/14 08:32:04;;;;;;;10.20;6.20;;;;;;;5.07;63.65;102166.35;107640;1254;110089;-61
2023/02/14 08:34:33;;;;;;;19.20;8.70;;;;;;;5.07;63.56;102174.92;107597;1254;107390;-62
2023/02/14 08:37:01;;;;;;;14.90;8.30;;;;;;;5.04;63.63;102180.38;107575;1254;97873;-61
2023/02/14 08:39:31;;;;;;;14.30;8.00;;;;;;;5.01;63.86;102177.45;107609;1256;97839;-60
2023/02/14 08:42:00;;;;;;;16.10;7.80;;;;;;;5.04;63.70;102179.33;107637;1256;112341;-60
2023/02/14 08:44:29;;;;;;;14.50;6.50;;;;;;;5.03;63.78;102180.04;107554;1256;110280;-60
2023/02/14 08:46:57;;;;;;;10.10;6.10;;;;;;;5.03;63.75;102175.59;107564;1253;108054;-60
2023/02/14 08:49:25;;;;;;;19.80;7.10;;;;;;;5.04;63.70;102168.83;107562;1254;97822;-61
2023/02/14 08:51:54;;;;;;;11.30;7.50;;;;;;;5.00;63.92;102164.88;107654;1254;97854;-60
2023/02/14 08:54:22;;;;;;;13.80;7.30;;;;;;;5.00;63.86;102163.64;107667;1254;112341;-61
2023/02/14 08:56:50;;;;;;;11.50;7.40;;;;;;;5.02;63.80;102168.88;107597;1254;109262;-61
2023/02/14 08:59:19;;;;;;;17.90;8.90;;;;;;;5.00;63.84;102168.96;107651;1254;108087;-61
2023/02/14 09:01:47;;;;;;;15.90;8.70;;;;;;;5.01;63.86;102173.21;107575;1253;97886;-62
2023/02/14 09:04:16;;;;;;;12.30;7.40;;;;;;;4.99;63.96;102176.46;107645;1253;98360;-60
2023/02/14 09:06:45;;;;;;;20.00;8.00;;;;;;;4.96;64.19;102176.44;107614;1256;111122;-60
2023/02/14 09:09:13;;;;;;;17.00;7.80;;;;;;;4.96;64.25;102181.42;107631;1253;109668;-61
2023/02/14 09:11:42;;;;;;;10.20;7.10;;;;;;;4.97;64.42;102187.21;107584;1253;107494;-60
2023/02/14 09:14:10;;;;;;;14.40;7.90;;;;;;;4.99;64.30;102181.65;107560;1254;97921;-63
2023/02/14 09:16:39;;;;;;;15.70;8.20;;;;;;;4.99;64.56;102188.01;107580;1252;98439;-64
2023/02/14 09:19:08;;;;;;;20.40;8.50;;;;;;;4.97;64.64;102184.58;107613;1253;112179;-61
2023/02/14 09:21:36;;;;;;;20.30;8.20;;;;;;;4.97;64.76;102188.13;107613;1251;109772;-61
2023/02/14 09:24:04;;;;;;;21.90;8.70;;;;;;;4.98;64.94;102187.73;107577;1251;109493;-61
2023/02/14 09:26:35;;;;;;;16.80;7.70;;;;;;;5.00;64.81;102184.27;107580;1254;97740;-61
2023/02/14 09:29:03;;;;;;;22.30;8.30;;;;;;;5.06;64.66;102175.68;107622;1254;97706;-60
2023/02/14 09:31:32;;;;;;;18.40;7.80;;;;;;;5.05;64.75;102177.48;107607;1254;111891;-61
2023/02/14 09:36:49;;;;;;;16.90;9.40;;;;;;;5.06;64.79;102180.98;107558;1254;107630;-61
2023/02/14 09:39:18;;;;;;;18.10;8.20;;;;;;;5.07;64.65;102166.55;107491;1252;97867;-60
2023/02/14 09:42:24;;;;;;;17.30;7.70;;;;;;;5.07;64.93;102176.31;107604;1253;97931;-61
2023/02/14 09:44:58;;;;;;;18.80;8.60;;;;;;;5.07;65.02;102178.46;107600;1251;112065;-61
2023/02/14 09:47:43;;;;;;;15.70;8.60;;;;;;;5.09;65.09;102181.03;107660;1251;110352;-61
2023/02/14 09:50:33;;;;;;;17.20;8.00;;;;;;;5.14;64.98;102183.88;107550;1253;107990;-61
2023/02/14 09:53:12;;;;;;;20.70;9.30;;;;;;;5.15;65.09;102181.14;107577;1252;98021;-61
2023/02/14 09:55:50;;;;;;;14.90;8.30;;;;;;;5.15;65.10;102182.03;107626;1253;97729;-60
2023/02/14 09:58:28;;;;;;;20.30;8.60;;;;;;;5.11;65.21;102181.31;107594;1253;112836;-61
2023/02/14 10:01:18;;;;;;;15.30;8.60;;;;;;;5.08;65.64;102174.15;107642;1253;109168;-60
2023/02/14 10:04:20;;;;;;;17.80;9.70;;;;;;;5.08;65.46;102173.45;107680;1251;107471;-60
2023/02/14 10:07:20;;;;;;;16.90;9.50;;;;;;;5.04;65.53;102173.09;107617;1254;97851;-62
2023/02/14 10:09:53;;;;;;;16.70;8.80;;;;;;;5.00;65.92;102180.37;107615;1251;97944;-61
2023/02/14 10:12:33;;;;;;;17.70;9.70;;;;;;;4.98;66.23;102176.86;107626;1253;112253;-63
2023/02/14 10:15:16;;;;;;;19.90;9.60;;;;;;;4.95;66.08;102178.44;107580;1253;109669;-60
2023/02/14 10:18:11;;;;;;;17.50;9.30;;;;;;;4.93;66.44;102179.24;107618;1255;108496;-60
2023/02/14 10:20:48;;;;;;;19.00;9.30;;;;;;;4.92;66.44;102176.05;107565;1251;97838;-61
2023/02/14 10:23:29;;;;;;;13.80;8.50;;;;;;;4.91;66.75;102175.92;107591;1254;97818;-61
2023/02/14 10:26:15;;;;;;;13.80;8.60;;;;;;;4.90;66.72;102179.33;107647;1253;112163;-61
2023/02/14 10:28:48;;;;;;;14.40;8.40;;;;;;;4.91;66.94;102173.29;107651;1254;108747;-61
2023/02/14 10:31:24;;;;;;;16.10;9.00;;;;;;;4.92;66.97;102168.79;107572;1254;108928;-60
2023/02/14 10:34:02;;;;;;;19.80;10.20;;;;;;;4.90;67.34;102171.17;107576;1253;97858;-61
2023/02/14 10:36:55;;;;;;;15.60;9.50;;;;;;;4.83;67.53;102167.72;107580;1255;97912;-61
2023/02/14 10:39:51;;;;;;;18.10;9.70;;;;;;;4.78;67.61;102167.05;107505;1252;111220;-61
2023/02/14 10:42:52;;;;;;;17.30;8.40;;;;;;;4.74;67.87;102175.58;107609;1253;110090;-63
2023/02/14 10:45:46;;;;;;;15.20;9.10;;;;;;;4.76;68.02;102170.52;107005;1253;726419;-60
2023/02/14 10:48:48;;;;;;;21.90;10.00;;;;;;;4.75;68.17;102165.96;107462;1256;97851;-60
2023/02/14 10:51:31;;;;;;;15.60;9.90;;;;;;;4.72;68.60;102165.16;107281;1254;98363;-62
2023/02/14 10:54:38;;;;;;;17.30;9.30;;;;;;;4.69;68.55;102172.02;107609;1253;112319;-60
2023/02/14 10:57:25;;;;;;;17.20;9.80;;;;;;;4.67;68.95;102169.61;107294;1253;109599;-61
2023/02/14 11:00:06;;;;;;;19.30;10.60;;;;;;;4.64;69.31;102161.91;107558;1254;108636;-61
2023/02/14 11:02:41;;;;;;;17.50;9.90;;;;;;;4.63;69.38;102161.25;107601;1252;97867;-61
2023/02/14 11:05:35;;;;;;;20.10;10.40;;;;;;;4.63;69.26;102160.55;107582;1252;97710;-59
2023/02/14 11:08:22;;;;;;;;;;;;;;;4.67;69.19;102158.25;107609;1253;111980;-61
2023/02/14 11:10:51;;;;;;;16.10;8.40;;;;;;;4.65;69.68;102156.40;107618;1253;110511;-61
2023/02/14 11:13:34;;;;;;;18.60;10.80;;;;;;;4.60;69.83;102161.23;107593;1255;109449;-62
2023/02/14 11:16:12;;;;;;;19.30;10.20;;;;;;;4.58;70.27;102159.17;107645;1254;98478;-61
2023/02/14 11:18:40;;;;;;;17.00;10.30;;;;;;;4.56;70.78;102160.84;107612;1251;98459;-60
2023/02/14 11:21:10;;;;;;;19.60;10.20;;;;;;;4.56;70.99;102159.07;107561;1253;111818;-61
2023/02/14 11:23:42;;;;;;;15.60;10.10;;;;;;;4.56;71.07;102161.94;107636;1252;110423;-62
2023/02/14 11:26:14;;;;;;;20.30;10.90;;;;;;;4.52;71.51;102159.95;107581;1253;108908;-60
2023/02/14 11:28:54;;;;;;;22.50;11.90;;;;;;;4.52;71.21;102159.40;107701;1253;97818;-59
2023/02/14 11:31:29;;;;;;;18.10;10.10;;;;;;;4.51;71.29;102158.20;107644;1251;98367;-60
2023/02/14 11:33:59;;;;;;;18.10;10.80;;;;;;;4.51;71.74;102155.92;107611;1252;111313;-62
2023/02/14 11:36:32;;;;;;;20.80;11.60;;;;;;;4.54;71.25;102151.52;107597;1254;109259;-60
2023/02/14 11:39:26;;;;;;;15.30;10.30;;;;;;;4.63;71.30;102149.36;107633;1252;108715;-61
2023/02/14 11:42:00;;;;;;;18.20;11.00;;;;;;;4.72;70.95;102146.52;107592;1252;97816;-61
2023/02/14 11:44:31;;;;;;;16.60;10.40;;;;;;;4.74;71.10;102142.36;107588;1253;97823;-60
2023/02/14 11:47:31;;;;;;;21.40;11.00;;;;;;;4.83;71.23;102132.52;107564;1252;111108;-60
2023/02/14 11:50:12;;;;;;;19.80;10.80;;;;;;;5.02;70.56;102132.28;107613;1251;109737;-61
2023/02/14 11:52:50;;;;;;;14.90;9.10;;;;;;;5.09;69.91;102126.27;107642;1251;108791;-61
2023/02/14 11:55:26;;;;;;;14.70;8.70;;;;;;;5.08;69.81;102123.48;107612;1253;97934;-60
2023/02/14 11:57:56;;;;;;;16.80;9.40;;;;;;;5.04;69.91;102125.79;107630;1255;97721;-62
2023/02/14 12:00:26;;;;;;;13.90;9.00;;;;;;;5.00;70.02;102117.58;107661;1254;112326;-61
2023/02/14 12:02:58;;;;;;;19.70;9.50;;;;;;;4.99;70.01;102120.46;107589;1255;109077;-60
2023/02/14 12:05:47;;;;;;;16.10;10.10;;;;;;;4.99;69.99;102117.61;107552;1252;108920;-61